MSC Diego — 3FZP8 — position and weather

sailwx.info

Track history (hours):
 
Tides and Currents Weather Stations Pressure Air Temp Water Temp Dewpoint Dewpoint Depression Visibility Wind Speed Wind Dir Waves Ship Positions

MSC Diego

Last reported at 2017-Nov-16 19:05 UTC. Time now 2017-Nov-21 04:07 UTC.
Position N 27°31' W 015°18'.

Type: Ship (hazmat cat A). MMSI: 357106000.

Date/timePositionNaut miles runAvg speedWind from/ knotsBaromVisibWave heightAir tempDewpointWater temp
2017-Nov-16 19:05N 27°31' W 015°18'115.6
2017-Nov-16 19:00N 27°32' W 015°17'815.7
2017-Nov-16 18:31N 27°39' W 015°14'815.1
2017-Nov-16 18:01N 27°47' W 015°12'917.9
2017-Nov-16 17:31N 27°56' W 015°13'918.1
2017-Nov-16 17:01N 28°03' W 015°18'713.7
2017-Nov-16 16:30N 28°07' W 015°24'1 1.6
2017-Nov-16 15:52N 28°08' W 015°25'0 0.0
2017-Nov-16 15:25N 28°08' W 015°25'0 0.0
2017-Nov-16 14:55N 28°08' W 015°25'0 0.0
2017-Nov-16 14:25N 28°08' W 015°25'0 0.0
2017-Nov-16 13:52N 28°08' W 015°25'0 0.0
2017-Nov-16 13:25N 28°08' W 015°25'0 0.0
2017-Nov-16 12:55N 28°08' W 015°25'0 0.0
2017-Nov-16 12:28N 28°08' W 015°25'0 0.0
2017-Nov-16 11:55N 28°08' W 015°25'0 0.0
2017-Nov-16 11:28N 28°08' W 015°25'0 0.0
2017-Nov-16 10:58N 28°08' W 015°25'0 0.0
2017-Nov-16 10:28N 28°08' W 015°25'0 0.0
2017-Nov-16 09:58N 28°08' W 015°25'0 0.0
2017-Nov-16 09:28N 28°08' W 015°25'0 0.0
2017-Nov-16 08:58N 28°08' W 015°25'0 0.0
2017-Nov-16 08:28N 28°08' W 015°25'0 0.0
2017-Nov-16 07:58N 28°08' W 015°25'0 0.0
2017-Nov-16 07:28N 28°08' W 015°25'0 0.0
2017-Nov-16 06:59N 28°08' W 015°25'0 0.8
2017-Nov-16 06:30N 28°08' W 015°25'2 4.5
2017-Nov-16 06:00N 28°07' W 015°22'3 5.7
2017-Nov-16 05:30N 28°07' W 015°19'510.4
2017-Nov-16 05:00N 28°12' W 015°17'612.3
2017-Nov-16 04:30N 28°17' W 015°15'713.1
2017-Nov-16 04:00N 28°24' W 015°12'713.4
2017-Nov-16 03:30N 28°30' W 015°10'713.9
2017-Nov-16 03:01N 28°37' W 015°08'714.1
2017-Nov-16 02:30N 28°44' W 015°05'714.3
2017-Nov-16 02:00N 28°51' W 015°03'714.8
2017-Nov-16 01:30N 28°58' W 015°01'714.7
2017-Nov-16 01:00N 29°05' W 014°58'914.5
2017-Nov-16 00:23N 29°13' W 014°56'614.5
2017-Nov-15 23:58N 29°19' W 014°54'1014.4
2017-Nov-15 23:17N 29°29' W 014°51'414.4
2017-Nov-15 23:00N 29°33' W 014°50'3014.7
2017-Nov-15 20:57N 30°02' W 014°41'714.9
2017-Nov-15 20:29N 30°08' W 014°38'  
2017-Nov-12 12:15N 49°38' W 003°53'517.7
2017-Nov-12 12:00N 49°40' W 003°47'917.7
2017-Nov-12 11:30N 49°45' W 003°35'918.2
2017-Nov-12 11:01N 49°48' W 003°22'918.6
2017-Nov-12 10:31N 49°53' W 003°10'918.8
2017-Nov-12 10:01N 49°56' W 002°56'1019.3
2017-Nov-12 09:30N 50°01' W 002°43'1319.4
2017-Nov-12 08:49N 50°02' W 002°22'1019.9
2017-Nov-12 08:19N 50°03' W 002°06'620.2
2017-Nov-12 08:00N 50°03' W 001°56'919.2
2017-Nov-12 07:31N 49°59' W 001°43'1019.4
2017-Nov-12 07:00N 49°55' W 001°29'1019.3
2017-Nov-12 06:30N 49°51' W 001°16'918.6
2017-Nov-12 06:00N 49°47' W 001°02'918.0
2017-Nov-12 05:30N 49°44' W 000°49'917.5
2017-Nov-12 05:01N 49°40' W 000°37'917.3
2017-Nov-12 04:30N 49°37' W 000°25'917.4
2017-Nov-12 04:01N 49°33' W 000°13'611.5
2017-Nov-12 03:31N 49°30' W 000°05'5 9.6
2017-Nov-12 03:01N 49°30' E 000°02'5 8.8
2017-Nov-12 02:29N 49°28' E 000°08'0 0.2
2017-Nov-12 01:59N 49°28' E 000°08'0 0.0
2017-Nov-12 01:29N 49°28' E 000°08'0 0.0
2017-Nov-12 00:59N 49°28' E 000°08'0 0.0
2017-Nov-12 00:29N 49°28' E 000°08'0 0.0
2017-Nov-11 23:59N 49°28' E 000°08'0 0.0
2017-Nov-11 23:29N 49°28' E 000°08'0 0.0
2017-Nov-11 22:59N 49°28' E 000°08'0 0.0
2017-Nov-11 22:29N 49°28' E 000°08'0 0.0
2017-Nov-11 21:59N 49°28' E 000°08'0 0.0
2017-Nov-11 21:29N 49°28' E 000°08'0 0.0
2017-Nov-11 20:59N 49°28' E 000°08'0 0.0
2017-Nov-11 20:29N 49°28' E 000°08'0 0.0
2017-Nov-11 19:59N 49°28' E 000°08'0 0.0
2017-Nov-11 19:29N 49°28' E 000°08'0 0.0
2017-Nov-11 18:59N 49°28' E 000°08'0 0.0
2017-Nov-11 18:29N 49°28' E 000°08'0 0.0
2017-Nov-11 17:59N 49°28' E 000°08'0 0.0
2017-Nov-11 17:29N 49°28' E 000°08'0 0.0
2017-Nov-11 16:59N 49°28' E 000°08'0 0.0
2017-Nov-11 16:29N 49°28' E 000°08'0 0.0
2017-Nov-11 15:59N 49°28' E 000°08'0 0.0
2017-Nov-11 15:29N 49°28' E 000°08'0 0.0
2017-Nov-11 14:59N 49°28' E 000°08'0 0.0
2017-Nov-11 14:29N 49°28' E 000°08'0 0.0
2017-Nov-11 13:59N 49°28' E 000°08'0 0.0
2017-Nov-11 13:29N 49°28' E 000°08'0 0.0
2017-Nov-11 12:59N 49°28' E 000°08'0 0.0
2017-Nov-11 12:29N 49°28' E 000°08'0 0.0
2017-Nov-11 11:59N 49°28' E 000°08'0 1.0
2017-Nov-11 11:30N 49°28' E 000°08'510.7
2017-Nov-11 11:01N 49°30' E 000°00'4 8.2
2017-Nov-11 10:31N 49°31' W 000°06'2 3.6
2017-Nov-11 10:01N 49°32' W 000°08'1 2.7
2017-Nov-11 09:31N 49°32' W 000°10'2 5.0
2017-Nov-11 09:00N 49°34' W 000°12'713.1
2017-Nov-11 08:30N 49°41' W 000°11'815.2
2017-Nov-11 08:00N 49°48' W 000°11'815.1
2017-Nov-11 07:30N 49°56' W 000°10'714.9
2017-Nov-11 07:00N 50°03' W 000°10'714.8
2017-Nov-11 06:30N 50°11' W 000°09'715.1
2017-Nov-11 06:00N 50°18' W 000°09'714.6
2017-Nov-11 05:30N 50°25' W 000°07'715.0
2017-Nov-11 05:00N 50°29' E 000°04'815.2
2017-Nov-11 04:30N 50°31' E 000°15'815.2
2017-Nov-11 04:00N 50°33' E 000°26'815.5
2017-Nov-11 03:30N 50°38' E 000°36'714.2
2017-Nov-11 03:00N 50°42' E 000°45'714.1
2017-Nov-11 02:31N 50°46' E 000°54'714.1
2017-Nov-11 02:00N 50°50' E 001°03'713.9
2017-Nov-11 01:31N 50°55' E 001°11'713.6
2017-Nov-11 01:00N 50°60' E 001°19'714.6
2017-Nov-11 00:30N 51°04' E 001°28'816.0
2017-Nov-11 00:00N 51°09' E 001°38'815.3
2017-Nov-10 23:30N 51°15' E 001°47'815.4
2017-Nov-10 23:00N 51°22' E 001°52'714.4
2017-Nov-10 22:30N 51°29' E 001°52'815.1
2017-Nov-10 22:00N 51°36' E 001°47'815.2
2017-Nov-10 21:30N 51°43' E 001°45'714.5
2017-Nov-10 21:00N 51°50' E 001°42'510.4
2017-Nov-10 20:31N 51°51' E 001°33'815.4
2017-Nov-10 20:01N 51°43' E 001°29'918.1
2017-Nov-10 19:31N 51°37' E 001°19'918.2
2017-Nov-10 19:00N 51°32' E 001°06'917.1
2017-Nov-10 18:30N 51°29' E 000°53'916.8
2017-Nov-10 18:00N 51°30' E 000°40'2 0.2
2017-Nov-10 06:52N 51°30' E 000°37'1010.5
2017-Nov-10 05:54N 51°29' E 000°53'410.8
2017-Nov-10 05:30N 51°30' E 001°00'611.9
2017-Nov-10 05:00N 51°33' E 001°08'612.9
2017-Nov-10 04:30N 51°36' E 001°17'815.6
2017-Nov-10 04:00N 51°41' E 001°26'816.0
2017-Nov-10 03:30N 51°48' E 001°34'713.8
2017-Nov-10 03:01N 51°52' E 001°43'3 6.0
2017-Nov-10 02:30N 51°51' E 001°47'4 8.4
2017-Nov-10 02:00N 51°47' E 001°48'4 7.9
2017-Nov-10 01:30N 51°43' E 001°48'4 7.9
2017-Nov-10 01:00N 51°39' E 001°49'4 7.4
2017-Nov-10 00:30N 51°35' E 001°51'4 7.5
2017-Nov-10 00:01N 51°32' E 001°52'3 6.1
2017-Nov-09 23:31N 51°29' E 001°55'4 7.1
2017-Nov-09 23:01N 51°27' E 001°59'4 7.6
2017-Nov-09 22:30N 51°24' E 002°04'4 7.5
2017-Nov-09 22:01N 51°22' E 002°09'4 7.5
2017-Nov-09 21:31N 51°21' E 002°14'3 6.8
2017-Nov-09 21:01N 51°21' E 002°20'4 7.7
2017-Nov-09 20:31N 51°22' E 002°26'4 7.5
2017-Nov-09 20:00N 51°23' E 002°31'4 7.4
2017-Nov-09 19:29N 51°23' E 002°38'4 7.7
2017-Nov-09 18:56N 51°23' E 002°44'510.9
2017-Nov-09 18:30N 51°25' E 002°51'816.1
2017-Nov-09 18:00N 51°25' E 003°04'815.4
2017-Nov-09 17:30N 51°25' E 003°16'815.3
2017-Nov-09 17:00N 51°25' E 003°28'5 9.9
2017-Nov-09 16:31N 51°26' E 003°36'4 8.5
2017-Nov-09 16:00N 51°24' E 003°43'612.7
2017-Nov-09 15:30N 51°21' E 003°51'611.2
2017-Nov-09 15:00N 51°25' E 003°57'3 6.3
2017-Nov-09 14:30N 51°24' E 004°02'5 9.8
2017-Nov-09 14:00N 51°23' E 004°10'4 7.3
2017-Nov-09 13:30N 51°21' E 004°15'3 7.0
2017-Nov-09 13:00N 51°18' E 004°16'1 0.9
2017-Nov-09 12:28N 51°17' E 004°15'0 0.0
2017-Nov-09 11:58N 51°17' E 004°15'0 0.0
2017-Nov-09 11:28N 51°17' E 004°15'0 0.0
2017-Nov-09 10:58N 51°17' E 004°15'0 0.0
2017-Nov-09 10:28N 51°17' E 004°15'0 0.0
2017-Nov-09 09:58N 51°17' E 004°15'0 0.0
2017-Nov-09 09:28N 51°17' E 004°15'0 0.0
2017-Nov-09 08:58N 51°17' E 004°15'0 0.0
2017-Nov-09 08:25N 51°17' E 004°15'0 0.0
2017-Nov-09 07:58N 51°17' E 004°15'0 0.0
2017-Nov-09 07:28N 51°17' E 004°15'0 0.0
2017-Nov-09 06:58N 51°17' E 004°15'0 0.0
2017-Nov-09 06:28N 51°17' E 004°15'0 0.0
2017-Nov-09 05:58N 51°17' E 004°15'0 0.0
2017-Nov-09 05:28N 51°17' E 004°15'0 0.0
2017-Nov-09 04:58N 51°17' E 004°15'0 0.0
2017-Nov-09 04:28N 51°17' E 004°15'0 0.0
2017-Nov-09 03:58N 51°17' E 004°15'0 0.0
2017-Nov-09 03:28N 51°17' E 004°15'0 0.0
2017-Nov-09 02:58N 51°17' E 004°15'0 0.0
2017-Nov-09 02:28N 51°17' E 004°15'0 0.0
2017-Nov-09 01:58N 51°17' E 004°15'0 0.0
2017-Nov-09 01:28N 51°17' E 004°15'0 0.0
2017-Nov-09 00:55N 51°17' E 004°15'0 0.0
2017-Nov-09 00:28N 51°17' E 004°15'0 0.0
2017-Nov-08 23:55N 51°17' E 004°15'0 0.0
2017-Nov-08 23:28N 51°17' E 004°15'0 0.0
2017-Nov-08 22:58N 51°17' E 004°15'0 0.0
2017-Nov-08 22:28N 51°17' E 004°15'0 0.0
2017-Nov-08 21:58N 51°17' E 004°15'0 0.0
2017-Nov-08 21:28N 51°17' E 004°15'0 0.0
2017-Nov-08 20:58N 51°17' E 004°15'0 0.0
2017-Nov-08 20:28N 51°17' E 004°15'0 0.0
2017-Nov-08 19:58N 51°17' E 004°15'0 0.0
2017-Nov-08 19:28N 51°17' E 004°15'0 0.0
2017-Nov-08 18:58N 51°17' E 004°15'0 0.0
2017-Nov-08 18:28N 51°17' E 004°15'0 0.0
2017-Nov-08 17:58N 51°17' E 004°15'0 0.0
2017-Nov-08 17:28N 51°17' E 004°15'0 0.0
2017-Nov-08 16:58N 51°17' E 004°15'0 0.0
2017-Nov-08 16:28N 51°17' E 004°15'0 0.0
2017-Nov-08 15:58N 51°17' E 004°15'0 0.0
2017-Nov-08 15:28N 51°17' E 004°15'0 0.0
2017-Nov-08 14:55N 51°17' E 004°15'0 0.0
2017-Nov-08 14:28N 51°17' E 004°15'0 0.0
2017-Nov-08 13:58N 51°17' E 004°15'0 0.0
2017-Nov-08 13:28N 51°17' E 004°15'0 0.0
2017-Nov-08 12:58N 51°17' E 004°15'0 0.0
2017-Nov-08 12:28N 51°17' E 004°15'0 0.0
2017-Nov-08 11:58N 51°17' E 004°15'0 0.0
2017-Nov-08 11:25N 51°17' E 004°15'0 0.0
2017-Nov-08 10:58N 51°17' E 004°15'0 0.0
2017-Nov-08 10:28N 51°17' E 004°15'0 0.0
2017-Nov-08 09:58N 51°17' E 004°15'0 0.0
2017-Nov-08 09:28N 51°17' E 004°15'0 0.0
2017-Nov-08 08:58N 51°17' E 004°15'0 0.0
2017-Nov-08 08:22N 51°17' E 004°15'0 0.0
2017-Nov-08 07:58N 51°17' E 004°15'0 0.0
2017-Nov-08 07:22N 51°17' E 004°15'0 0.0
2017-Nov-08 06:55N 51°17' E 004°15'0 0.0
2017-Nov-08 06:28N 51°17' E 004°15'0 0.0
2017-Nov-08 05:58N 51°17' E 004°15'0 0.0
2017-Nov-08 05:28N 51°17' E 004°15'0 0.0
2017-Nov-08 04:58N 51°17' E 004°15'0 0.0
2017-Nov-08 04:28N 51°17' E 004°15'0 0.0
2017-Nov-08 03:58N 51°17' E 004°15'0 0.0
2017-Nov-08 03:25N 51°17' E 004°15'0 0.0
2017-Nov-08 02:58N 51°17' E 004°15'0 0.0
2017-Nov-08 02:28N 51°17' E 004°15'0 0.0
2017-Nov-08 01:55N 51°17' E 004°15'0 0.0
2017-Nov-08 01:28N 51°17' E 004°15'0 1.0
2017-Nov-08 01:00N 51°18' E 004°16'2 4.1
2017-Nov-08 00:30N 51°20' E 004°16'510.1
2017-Nov-08 00:00N 51°24' E 004°12'611.7
2017-Nov-07 23:30N 51°23' E 004°02'3 6.5
2017-Nov-07 23:00N 51°24' E 003°57'611.8
2017-Nov-07 22:30N 51°21' E 003°50'611.0
2017-Nov-07 22:00N 51°24' E 003°43'5 9.3
2017-Nov-07 21:31N 51°26' E 003°36'4 7.8
2017-Nov-07 21:01N 51°25' E 003°30'611.9
2017-Nov-07 20:30N 51°24' E 003°20'612.4
2017-Nov-07 20:01N 51°24' E 003°10'713.6
2017-Nov-07 19:31N 51°23' E 002°60'816.2
2017-Nov-07 19:00N 51°22' E 002°47'611.3
2017-Nov-07 18:30N 51°23' E 002°38'2 2.5
2017-Nov-07 17:48N 51°24' E 002°36'0 0.0
2017-Nov-07 17:24N 51°24' E 002°36'0 0.1
2017-Nov-07 17:00N 51°24' E 002°37'0 0.3
2017-Nov-07 16:27N 51°24' E 002°36'2 4.2
2017-Nov-07 16:00N 51°23' E 002°34'611.6
2017-Nov-07 15:30N 51°21' E 002°25'612.1
2017-Nov-07 15:00N 51°18' E 002°17'612.7
2017-Nov-07 14:30N 51°15' E 002°08'713.6
2017-Nov-07 14:00N 51°11' E 001°59'714.0
2017-Nov-07 13:30N 51°08' E 001°49'714.5
2017-Nov-07 13:00N 51°03' E 001°41'714.8
2017-Nov-07 12:31N 50°57' E 001°33'814.9
2017-Nov-07 12:00N 50°51' E 001°27'1013.8
2017-Nov-07 11:15N 50°41' E 001°21'4516.5
2017-Nov-07 08:32N 50°22' E 000°17'11357.3
2017-Nov-07 08:31N 50°19' E 000°01'1015.7
2017-Nov-07 07:51N 50°22' E 000°17'513.1
2017-Nov-07 07:30N 50°20' E 000°10'713.0
2017-Nov-07 07:00N 50°19' W 000°00'612.7
2017-Nov-07 06:31N 50°17' W 000°09'612.3
2017-Nov-07 06:00N 50°15' W 000°19'611.9
2017-Nov-07 05:30N 50°14' W 000°28'611.5
2017-Nov-07 04:58N 50°12' W 000°37'511.0
2017-Nov-07 04:30N 50°11' W 000°45'510.6
2017-Nov-07 04:00N 50°10' W 000°53'510.4
2017-Nov-07 03:30N 50°09' W 001°01'510.2
2017-Nov-07 03:00N 50°08' W 001°09'510.5
2017-Nov-07 02:30N 50°07' W 001°17'510.9
2017-Nov-07 02:00N 50°06' W 001°25'611.7
2017-Nov-07 01:30N 50°04' W 001°34'612.3
2017-Nov-07 01:00N 50°03' W 001°43'713.2
2017-Nov-07 00:30N 50°01' W 001°53'714.1
2017-Nov-07 00:00N 49°60' W 002°04'714.9
2017-Nov-06 23:30N 49°58' W 002°15'2415.4
2017-Nov-06 21:59N 49°51' W 002°50'715.6
2017-Nov-06 21:30N 49°47' W 003°00'815.5
2017-Nov-06 21:00N 49°43' W 003°10'  
Track history (hours):
 
Tides and Currents Weather Stations Pressure Air Temp Water Temp Dewpoint Dewpoint Depression Visibility Wind Speed Wind Dir Waves Ship Positions

MSC Diego

Last reported at 2017-Nov-16 19:05 UTC. Time now 2017-Nov-21 04:07 UTC.
Position N 27°31' W 015°18'.

Type: Ship (hazmat cat A). MMSI: 357106000.

Date/timePositionNaut miles runAvg speedWind from/ knotsBaromVisibWave heightAir tempDewpointWater temp
2017-Nov-16 19:05N 27°31' W 015°18'115.6
2017-Nov-16 19:00N 27°32' W 015°17'815.7
2017-Nov-16 18:31N 27°39' W 015°14'815.1
2017-Nov-16 18:01N 27°47' W 015°12'917.9
2017-Nov-16 17:31N 27°56' W 015°13'918.1
2017-Nov-16 17:01N 28°03' W 015°18'713.7
2017-Nov-16 16:30N 28°07' W 015°24'1 1.6
2017-Nov-16 15:52N 28°08' W 015°25'0 0.0
2017-Nov-16 15:25N 28°08' W 015°25'0 0.0
2017-Nov-16 14:55N 28°08' W 015°25'0 0.0
2017-Nov-16 14:25N 28°08' W 015°25'0 0.0
2017-Nov-16 13:52N 28°08' W 015°25'0 0.0
2017-Nov-16 13:25N 28°08' W 015°25'0 0.0
2017-Nov-16 12:55N 28°08' W 015°25'0 0.0
2017-Nov-16 12:28N 28°08' W 015°25'0 0.0
2017-Nov-16 11:55N 28°08' W 015°25'0 0.0
2017-Nov-16 11:28N 28°08' W 015°25'0 0.0
2017-Nov-16 10:58N 28°08' W 015°25'0 0.0
2017-Nov-16 10:28N 28°08' W 015°25'0 0.0
2017-Nov-16 09:58N 28°08' W 015°25'0 0.0
2017-Nov-16 09:28N 28°08' W 015°25'0 0.0
2017-Nov-16 08:58N 28°08' W 015°25'0 0.0
2017-Nov-16 08:28N 28°08' W 015°25'0 0.0
2017-Nov-16 07:58N 28°08' W 015°25'0 0.0
2017-Nov-16 07:28N 28°08' W 015°25'0 0.0
2017-Nov-16 06:59N 28°08' W 015°25'0 0.8
2017-Nov-16 06:30N 28°08' W 015°25'2 4.5
2017-Nov-16 06:00N 28°07' W 015°22'3 5.7
2017-Nov-16 05:30N 28°07' W 015°19'510.4
2017-Nov-16 05:00N 28°12' W 015°17'612.3
2017-Nov-16 04:30N 28°17' W 015°15'713.1
2017-Nov-16 04:00N 28°24' W 015°12'713.4
2017-Nov-16 03:30N 28°30' W 015°10'713.9
2017-Nov-16 03:01N 28°37' W 015°08'714.1
2017-Nov-16 02:30N 28°44' W 015°05'714.3
2017-Nov-16 02:00N 28°51' W 015°03'714.8
2017-Nov-16 01:30N 28°58' W 015°01'714.7
2017-Nov-16 01:00N 29°05' W 014°58'914.5
2017-Nov-16 00:23N 29°13' W 014°56'614.5
2017-Nov-15 23:58N 29°19' W 014°54'1014.4
2017-Nov-15 23:17N 29°29' W 014°51'414.4
2017-Nov-15 23:00N 29°33' W 014°50'3014.7
2017-Nov-15 20:57N 30°02' W 014°41'714.9
2017-Nov-15 20:29N 30°08' W 014°38'  
2017-Nov-12 12:15N 49°38' W 003°53'517.7
2017-Nov-12 12:00N 49°40' W 003°47'917.7
2017-Nov-12 11:30N 49°45' W 003°35'918.2
2017-Nov-12 11:01N 49°48' W 003°22'918.6
2017-Nov-12 10:31N 49°53' W 003°10'918.8
2017-Nov-12 10:01N 49°56' W 002°56'1019.3
2017-Nov-12 09:30N 50°01' W 002°43'1319.4
2017-Nov-12 08:49N 50°02' W 002°22'1019.9
2017-Nov-12 08:19N 50°03' W 002°06'620.2
2017-Nov-12 08:00N 50°03' W 001°56'919.2
2017-Nov-12 07:31N 49°59' W 001°43'1019.4
2017-Nov-12 07:00N 49°55' W 001°29'1019.3
2017-Nov-12 06:30N 49°51' W 001°16'918.6
2017-Nov-12 06:00N 49°47' W 001°02'918.0
2017-Nov-12 05:30N 49°44' W 000°49'917.5
2017-Nov-12 05:01N 49°40' W 000°37'917.3
2017-Nov-12 04:30N 49°37' W 000°25'917.4
2017-Nov-12 04:01N 49°33' W 000°13'611.5
2017-Nov-12 03:31N 49°30' W 000°05'5 9.6
2017-Nov-12 03:01N 49°30' E 000°02'5 8.8
2017-Nov-12 02:29N 49°28' E 000°08'0 0.2
2017-Nov-12 01:59N 49°28' E 000°08'0 0.0
2017-Nov-12 01:29N 49°28' E 000°08'0 0.0
2017-Nov-12 00:59N 49°28' E 000°08'0 0.0
2017-Nov-12 00:29N 49°28' E 000°08'0 0.0
2017-Nov-11 23:59N 49°28' E 000°08'0 0.0
2017-Nov-11 23:29N 49°28' E 000°08'0 0.0
2017-Nov-11 22:59N 49°28' E 000°08'0 0.0
2017-Nov-11 22:29N 49°28' E 000°08'0 0.0
2017-Nov-11 21:59N 49°28' E 000°08'0 0.0
2017-Nov-11 21:29N 49°28' E 000°08'0 0.0
2017-Nov-11 20:59N 49°28' E 000°08'0 0.0
2017-Nov-11 20:29N 49°28' E 000°08'0 0.0
2017-Nov-11 19:59N 49°28' E 000°08'0 0.0
2017-Nov-11 19:29N 49°28' E 000°08'0 0.0
2017-Nov-11 18:59N 49°28' E 000°08'0 0.0
2017-Nov-11 18:29N 49°28' E 000°08'0 0.0
2017-Nov-11 17:59N 49°28' E 000°08'0 0.0
2017-Nov-11 17:29N 49°28' E 000°08'0 0.0
2017-Nov-11 16:59N 49°28' E 000°08'0 0.0
2017-Nov-11 16:29N 49°28' E 000°08'0 0.0
2017-Nov-11 15:59N 49°28' E 000°08'0 0.0
2017-Nov-11 15:29N 49°28' E 000°08'0 0.0
2017-Nov-11 14:59N 49°28' E 000°08'0 0.0
2017-Nov-11 14:29N 49°28' E 000°08'0 0.0
2017-Nov-11 13:59N 49°28' E 000°08'0 0.0
2017-Nov-11 13:29N 49°28' E 000°08'0 0.0
2017-Nov-11 12:59N 49°28' E 000°08'0 0.0
2017-Nov-11 12:29N 49°28' E 000°08'0 0.0
2017-Nov-11 11:59N 49°28' E 000°08'0 1.0
2017-Nov-11 11:30N 49°28' E 000°08'510.7
2017-Nov-11 11:01N 49°30' E 000°00'4 8.2
2017-Nov-11 10:31N 49°31' W 000°06'2 3.6
2017-Nov-11 10:01N 49°32' W 000°08'1 2.7
2017-Nov-11 09:31N 49°32' W 000°10'2 5.0
2017-Nov-11 09:00N 49°34' W 000°12'713.1
2017-Nov-11 08:30N 49°41' W 000°11'815.2
2017-Nov-11 08:00N 49°48' W 000°11'815.1
2017-Nov-11 07:30N 49°56' W 000°10'714.9
2017-Nov-11 07:00N 50°03' W 000°10'714.8
2017-Nov-11 06:30N 50°11' W 000°09'715.1
2017-Nov-11 06:00N 50°18' W 000°09'714.6
2017-Nov-11 05:30N 50°25' W 000°07'715.0
2017-Nov-11 05:00N 50°29' E 000°04'815.2
2017-Nov-11 04:30N 50°31' E 000°15'815.2
2017-Nov-11 04:00N 50°33' E 000°26'815.5
2017-Nov-11 03:30N 50°38' E 000°36'714.2
2017-Nov-11 03:00N 50°42' E 000°45'714.1
2017-Nov-11 02:31N 50°46' E 000°54'714.1
2017-Nov-11 02:00N 50°50' E 001°03'713.9
2017-Nov-11 01:31N 50°55' E 001°11'713.6
2017-Nov-11 01:00N 50°60' E 001°19'714.6
2017-Nov-11 00:30N 51°04' E 001°28'816.0
2017-Nov-11 00:00N 51°09' E 001°38'815.3
2017-Nov-10 23:30N 51°15' E 001°47'815.4
2017-Nov-10 23:00N 51°22' E 001°52'714.4
2017-Nov-10 22:30N 51°29' E 001°52'815.1
2017-Nov-10 22:00N 51°36' E 001°47'815.2
2017-Nov-10 21:30N 51°43' E 001°45'714.5
2017-Nov-10 21:00N 51°50' E 001°42'510.4
2017-Nov-10 20:31N 51°51' E 001°33'815.4
2017-Nov-10 20:01N 51°43' E 001°29'918.1
2017-Nov-10 19:31N 51°37' E 001°19'918.2
2017-Nov-10 19:00N 51°32' E 001°06'917.1
2017-Nov-10 18:30N 51°29' E 000°53'916.8
2017-Nov-10 18:00N 51°30' E 000°40'2 0.2
2017-Nov-10 06:52N 51°30' E 000°37'1010.5
2017-Nov-10 05:54N 51°29' E 000°53'410.8
2017-Nov-10 05:30N 51°30' E 001°00'611.9
2017-Nov-10 05:00N 51°33' E 001°08'612.9
2017-Nov-10 04:30N 51°36' E 001°17'815.6
2017-Nov-10 04:00N 51°41' E 001°26'816.0
2017-Nov-10 03:30N 51°48' E 001°34'713.8
2017-Nov-10 03:01N 51°52' E 001°43'3 6.0
2017-Nov-10 02:30N 51°51' E 001°47'4 8.4
2017-Nov-10 02:00N 51°47' E 001°48'4 7.9
2017-Nov-10 01:30N 51°43' E 001°48'4 7.9
2017-Nov-10 01:00N 51°39' E 001°49'4 7.4
2017-Nov-10 00:30N 51°35' E 001°51'4 7.5
2017-Nov-10 00:01N 51°32' E 001°52'3 6.1
2017-Nov-09 23:31N 51°29' E 001°55'4 7.1
2017-Nov-09 23:01N 51°27' E 001°59'4 7.6
2017-Nov-09 22:30N 51°24' E 002°04'4 7.5
2017-Nov-09 22:01N 51°22' E 002°09'4 7.5
2017-Nov-09 21:31N 51°21' E 002°14'3 6.8
2017-Nov-09 21:01N 51°21' E 002°20'4 7.7
2017-Nov-09 20:31N 51°22' E 002°26'4 7.5
2017-Nov-09 20:00N 51°23' E 002°31'4 7.4
2017-Nov-09 19:29N 51°23' E 002°38'4 7.7
2017-Nov-09 18:56N 51°23' E 002°44'510.9
2017-Nov-09 18:30N 51°25' E 002°51'816.1
2017-Nov-09 18:00N 51°25' E 003°04'815.4
2017-Nov-09 17:30N 51°25' E 003°16'815.3
2017-Nov-09 17:00N 51°25' E 003°28'5 9.9
2017-Nov-09 16:31N 51°26' E 003°36'4 8.5
2017-Nov-09 16:00N 51°24' E 003°43'612.7
2017-Nov-09 15:30N 51°21' E 003°51'611.2
2017-Nov-09 15:00N 51°25' E 003°57'3 6.3
2017-Nov-09 14:30N 51°24' E 004°02'5 9.8
2017-Nov-09 14:00N 51°23' E 004°10'4 7.3
2017-Nov-09 13:30N 51°21' E 004°15'3 7.0
2017-Nov-09 13:00N 51°18' E 004°16'1 0.9
2017-Nov-09 12:28N 51°17' E 004°15'0 0.0
2017-Nov-09 11:58N 51°17' E 004°15'0 0.0
2017-Nov-09 11:28N 51°17' E 004°15'0 0.0
2017-Nov-09 10:58N 51°17' E 004°15'0 0.0
2017-Nov-09 10:28N 51°17' E 004°15'0 0.0
2017-Nov-09 09:58N 51°17' E 004°15'0 0.0
2017-Nov-09 09:28N 51°17' E 004°15'0 0.0
2017-Nov-09 08:58N 51°17' E 004°15'0 0.0
2017-Nov-09 08:25N 51°17' E 004°15'0 0.0
2017-Nov-09 07:58N 51°17' E 004°15'0 0.0
2017-Nov-09 07:28N 51°17' E 004°15'0 0.0
2017-Nov-09 06:58N 51°17' E 004°15'0 0.0
2017-Nov-09 06:28N 51°17' E 004°15'0 0.0
2017-Nov-09 05:58N 51°17' E 004°15'0 0.0
2017-Nov-09 05:28N 51°17' E 004°15'0 0.0
2017-Nov-09 04:58N 51°17' E 004°15'0 0.0
2017-Nov-09 04:28N 51°17' E 004°15'0 0.0
2017-Nov-09 03:58N 51°17' E 004°15'0 0.0
2017-Nov-09 03:28N 51°17' E 004°15'0 0.0
2017-Nov-09 02:58N 51°17' E 004°15'0 0.0
2017-Nov-09 02:28N 51°17' E 004°15'0 0.0
2017-Nov-09 01:58N 51°17' E 004°15'0 0.0
2017-Nov-09 01:28N 51°17' E 004°15'0 0.0
2017-Nov-09 00:55N 51°17' E 004°15'0 0.0
2017-Nov-09 00:28N 51°17' E 004°15'0 0.0
2017-Nov-08 23:55N 51°17' E 004°15'0 0.0
2017-Nov-08 23:28N 51°17' E 004°15'0 0.0
2017-Nov-08 22:58N 51°17' E 004°15'0 0.0
2017-Nov-08 22:28N 51°17' E 004°15'0 0.0
2017-Nov-08 21:58N 51°17' E 004°15'0 0.0
2017-Nov-08 21:28N 51°17' E 004°15'0 0.0
2017-Nov-08 20:58N 51°17' E 004°15'0 0.0
2017-Nov-08 20:28N 51°17' E 004°15'0 0.0
2017-Nov-08 19:58N 51°17' E 004°15'0 0.0
2017-Nov-08 19:28N 51°17' E 004°15'0 0.0
2017-Nov-08 18:58N 51°17' E 004°15'0 0.0
2017-Nov-08 18:28N 51°17' E 004°15'0 0.0
2017-Nov-08 17:58N 51°17' E 004°15'0 0.0
2017-Nov-08 17:28N 51°17' E 004°15'0 0.0
2017-Nov-08 16:58N 51°17' E 004°15'0 0.0
2017-Nov-08 16:28N 51°17' E 004°15'0 0.0
2017-Nov-08 15:58N 51°17' E 004°15'0 0.0
2017-Nov-08 15:28N 51°17' E 004°15'0 0.0
2017-Nov-08 14:55N 51°17' E 004°15'0 0.0
2017-Nov-08 14:28N 51°17' E 004°15'0 0.0
2017-Nov-08 13:58N 51°17' E 004°15'0 0.0
2017-Nov-08 13:28N 51°17' E 004°15'0 0.0
2017-Nov-08 12:58N 51°17' E 004°15'0 0.0
2017-Nov-08 12:28N 51°17' E 004°15'0 0.0
2017-Nov-08 11:58N 51°17' E 004°15'0 0.0
2017-Nov-08 11:25N 51°17' E 004°15'0 0.0
2017-Nov-08 10:58N 51°17' E 004°15'0 0.0
2017-Nov-08 10:28N 51°17' E 004°15'0 0.0
2017-Nov-08 09:58N 51°17' E 004°15'0 0.0
2017-Nov-08 09:28N 51°17' E 004°15'0 0.0
2017-Nov-08 08:58N 51°17' E 004°15'0 0.0
2017-Nov-08 08:22N 51°17' E 004°15'0 0.0
2017-Nov-08 07:58N 51°17' E 004°15'0 0.0
2017-Nov-08 07:22N 51°17' E 004°15'0 0.0
2017-Nov-08 06:55N 51°17' E 004°15'0 0.0
2017-Nov-08 06:28N 51°17' E 004°15'0 0.0
2017-Nov-08 05:58N 51°17' E 004°15'0 0.0
2017-Nov-08 05:28N 51°17' E 004°15'0 0.0
2017-Nov-08 04:58N 51°17' E 004°15'0 0.0
2017-Nov-08 04:28N 51°17' E 004°15'0 0.0
2017-Nov-08 03:58N 51°17' E 004°15'0 0.0
2017-Nov-08 03:25N 51°17' E 004°15'0 0.0
2017-Nov-08 02:58N 51°17' E 004°15'0 0.0
2017-Nov-08 02:28N 51°17' E 004°15'0 0.0
2017-Nov-08 01:55N 51°17' E 004°15'0 0.0
2017-Nov-08 01:28N 51°17' E 004°15'0 1.0
2017-Nov-08 01:00N 51°18' E 004°16'2 4.1
2017-Nov-08 00:30N 51°20' E 004°16'510.1
2017-Nov-08 00:00N 51°24' E 004°12'611.7
2017-Nov-07 23:30N 51°23' E 004°02'3 6.5
2017-Nov-07 23:00N 51°24' E 003°57'611.8
2017-Nov-07 22:30N 51°21' E 003°50'611.0
2017-Nov-07 22:00N 51°24' E 003°43'5 9.3
2017-Nov-07 21:31N 51°26' E 003°36'4 7.8
2017-Nov-07 21:01N 51°25' E 003°30'611.9
2017-Nov-07 20:30N 51°24' E 003°20'612.4
2017-Nov-07 20:01N 51°24' E 003°10'713.6
2017-Nov-07 19:31N 51°23' E 002°60'816.2
2017-Nov-07 19:00N 51°22' E 002°47'611.3
2017-Nov-07 18:30N 51°23' E 002°38'2 2.5
2017-Nov-07 17:48N 51°24' E 002°36'0 0.0
2017-Nov-07 17:24N 51°24' E 002°36'0 0.1
2017-Nov-07 17:00N 51°24' E 002°37'0 0.3
2017-Nov-07 16:27N 51°24' E 002°36'2 4.2
2017-Nov-07 16:00N 51°23' E 002°34'611.6
2017-Nov-07 15:30N 51°21' E 002°25'612.1
2017-Nov-07 15:00N 51°18' E 002°17'612.7
2017-Nov-07 14:30N 51°15' E 002°08'713.6
2017-Nov-07 14:00N 51°11' E 001°59'714.0
2017-Nov-07 13:30N 51°08' E 001°49'714.5
2017-Nov-07 13:00N 51°03' E 001°41'714.8
2017-Nov-07 12:31N 50°57' E 001°33'814.9
2017-Nov-07 12:00N 50°51' E 001°27'1013.8
2017-Nov-07 11:15N 50°41' E 001°21'4516.5
2017-Nov-07 08:32N 50°22' E 000°17'11357.3
2017-Nov-07 08:31N 50°19' E 000°01'1015.7
2017-Nov-07 07:51N 50°22' E 000°17'513.1
2017-Nov-07 07:30N 50°20' E 000°10'713.0
2017-Nov-07 07:00N 50°19' W 000°00'612.7
2017-Nov-07 06:31N 50°17' W 000°09'612.3
2017-Nov-07 06:00N 50°15' W 000°19'611.9
2017-Nov-07 05:30N 50°14' W 000°28'611.5
2017-Nov-07 04:58N 50°12' W 000°37'511.0
2017-Nov-07 04:30N 50°11' W 000°45'510.6
2017-Nov-07 04:00N 50°10' W 000°53'510.4
2017-Nov-07 03:30N 50°09' W 001°01'510.2
2017-Nov-07 03:00N 50°08' W 001°09'510.5
2017-Nov-07 02:30N 50°07' W 001°17'510.9
2017-Nov-07 02:00N 50°06' W 001°25'611.7
2017-Nov-07 01:30N 50°04' W 001°34'612.3
2017-Nov-07 01:00N 50°03' W 001°43'713.2
2017-Nov-07 00:30N 50°01' W 001°53'714.1
2017-Nov-07 00:00N 49°60' W 002°04'714.9
2017-Nov-06 23:30N 49°58' W 002°15'2415.4
2017-Nov-06 21:59N 49°51' W 002°50'715.6
2017-Nov-06 21:30N 49°47' W 003°00'815.5
2017-Nov-06 21:00N 49°43' W 003°10'  

Dump ship's entire track history